sensor_id;sensor_type;location;lat;lon;timestamp;pressure;altitude;pressure_sealevel;temperature;humidity
18137;BME280;9194;42.632;23.298;2024-01-16T00:01:09;91107.09;;;0.38;100.00
18137;BME280;9194;42.632;23.298;2024-01-16T00:06:10;91118.72;;;0.41;100.00
18137;BME280;9194;42.632;23.298;2024-01-16T00:11:11;91102.19;;;0.44;100.00
18137;BME280;9194;42.632;23.298;2024-01-16T00:16:13;91112.03;;;0.40;100.00
18137;BME280;9194;42.632;23.298;2024-01-16T00:21:14;91124.84;;;0.47;100.00
18137;BME280;9194;42.632;23.298;2024-01-16T00:26:22;91112.00;;;0.53;100.00
18137;BME280;9194;42.632;23.298;2024-01-16T00:31:24;91127.78;;;0.63;100.00
18137;BME280;9194;42.632;23.298;2024-01-16T00:36:26;91127.78;;;0.70;100.00
18137;BME280;9194;42.632;23.298;2024-01-16T00:41:28;91140.56;;;0.63;100.00
18137;BME280;9194;42.632;23.298;2024-01-16T00:46:29;91153.16;;;0.65;100.00
18137;BME280;9194;42.632;23.298;2024-01-16T00:51:30;91153.38;;;0.63;100.00
18137;BME280;9194;42.632;23.298;2024-01-16T00:56:31;91163.22;;;0.66;100.00
18137;BME280;9194;42.632;23.298;2024-01-16T01:01:37;91164.78;;;0.67;100.00
18137;BME280;9194;42.632;23.298;2024-01-16T01:06:39;91151.56;;;0.83;100.00
18137;BME280;9194;42.632;23.298;2024-01-16T01:11:40;91169.84;;;1.07;100.00
18137;BME280;9194;42.632;23.298;2024-01-16T01:16:41;91189.19;;;1.09;100.00
18137;BME280;9194;42.632;23.298;2024-01-16T01:21:43;91192.34;;;1.05;100.00
18137;BME280;9194;42.632;23.298;2024-01-16T01:26:44;91183.88;;;1.04;100.00
18137;BME280;9194;42.632;23.298;2024-01-16T01:31:46;91171.41;;;1.14;100.00
18137;BME280;9194;42.632;23.298;2024-01-16T01:36:49;91181.06;;;1.12;100.00
18137;BME280;9194;42.632;23.298;2024-01-16T01:41:50;91173.00;;;1.15;100.00
18137;BME280;9194;42.632;23.298;2024-01-16T01:46:54;91155.63;;;1.17;100.00
18137;BME280;9194;42.632;23.298;2024-01-16T01:51:55;91142.19;;;1.29;100.00
18137;BME280;9194;42.632;23.298;2024-01-16T01:56:57;91158.59;;;1.21;100.00
18137;BME280;9194;42.632;23.298;2024-01-16T02:01:58;91164.69;;;1.33;100.00
18137;BME280;9194;42.632;23.298;2024-01-16T02:07:00;91180.63;;;1.35;100.00
18137;BME280;9194;42.632;23.298;2024-01-16T02:12:02;91188.50;;;1.40;100.00
18137;BME280;9194;42.632;23.298;2024-01-16T02:17:03;91186.91;;;1.46;100.00
18137;BME280;9194;42.632;23.298;2024-01-16T02:22:08;91182.63;;;1.33;100.00
18137;BME280;9194;42.632;23.298;2024-01-16T02:27:10;91194.81;;;1.44;100.00
18137;BME280;9194;42.632;23.298;2024-01-16T02:32:12;91199.56;;;1.34;100.00
18137;BME280;9194;42.632;23.298;2024-01-16T02:37:13;91184.28;;;1.65;100.00
18137;BME280;9194;42.632;23.298;2024-01-16T02:42:15;91190.34;;;1.78;100.00
18137;BME280;9194;42.632;23.298;2024-01-16T02:47:16;91192.72;;;1.79;100.00
18137;BME280;9194;42.632;23.298;2024-01-16T02:52:17;91197.63;;;1.81;100.00
18137;BME280;9194;42.632;23.298;2024-01-16T02:57:19;91232.69;;;1.93;100.00
18137;BME280;9194;42.632;23.298;2024-01-16T03:02:21;91279.91;;;1.86;100.00
18137;BME280;9194;42.632;23.298;2024-01-16T03:07:23;91307.72;;;1.95;100.00
18137;BME280;9194;42.632;23.298;2024-01-16T03:12:25;91315.59;;;1.87;100.00
18137;BME280;9194;42.632;23.298;2024-01-16T03:17:26;91326.66;;;1.81;100.00
18137;BME280;9194;42.632;23.298;2024-01-16T03:22:27;91340.13;;;1.70;100.00
18137;BME280;9194;42.632;23.298;2024-01-16T03:27:29;91358.66;;;1.85;100.00
18137;BME280;9194;42.632;23.298;2024-01-16T03:32:31;91352.97;;;2.34;100.00
18137;BME280;9194;42.632;23.298;2024-01-16T03:37:33;91363.22;;;2.47;100.00
18137;BME280;9194;42.632;23.298;2024-01-16T03:42:34;91368.31;;;2.54;100.00
18137;BME280;9194;42.632;23.298;2024-01-16T03:47:35;91379.63;;;2.40;100.00
18137;BME280;9194;42.632;23.298;2024-01-16T03:52:37;91393.28;;;2.27;100.00
18137;BME280;9194;42.632;23.298;2024-01-16T03:57:38;91400.81;;;2.16;100.00
18137;BME280;9194;42.632;23.298;2024-01-16T04:02:39;91412.69;;;2.10;100.00
18137;BME280;9194;42.632;23.298;2024-01-16T04:07:41;91423.16;;;2.09;100.00
18137;BME280;9194;42.632;23.298;2024-01-16T04:12:42;91434.00;;;2.04;100.00
18137;BME280;9194;42.632;23.298;2024-01-16T04:17:43;91460.28;;;1.99;100.00
18137;BME280;9194;42.632;23.298;2024-01-16T04:22:45;91467.19;;;1.92;100.00
18137;BME280;9194;42.632;23.298;2024-01-16T04:27:46;91462.25;;;1.97;100.00
18137;BME280;9194;42.632;23.298;2024-01-16T04:32:48;91458.91;;;1.90;100.00
18137;BME280;9194;42.632;23.298;2024-01-16T04:37:49;91467.19;;;1.66;100.00
18137;BME280;9194;42.632;23.298;2024-01-16T04:42:50;91480.53;;;1.35;100.00
18137;BME280;9194;42.632;23.298;2024-01-16T04:47:51;91497.88;;;1.27;100.00
18137;BME280;9194;42.632;23.298;2024-01-16T04:52:53;91512.84;;;1.23;100.00
18137;BME280;9194;42.632;23.298;2024-01-16T04:57:55;91537.69;;;1.22;100.00
18137;BME280;9194;42.632;23.298;2024-01-16T05:02:57;91549.50;;;1.17;100.00
18137;BME280;9194;42.632;23.298;2024-01-16T05:08:01;91562.09;;;1.12;100.00
18137;BME280;9194;42.632;23.298;2024-01-16T05:13:03;91588.94;;;1.22;100.00
18137;BME280;9194;42.632;23.298;2024-01-16T05:18:04;91603.75;;;1.20;100.00
18137;BME280;9194;42.632;23.298;2024-01-16T05:23:05;91607.84;;;1.15;100.00
18137;BME280;9194;42.632;23.298;2024-01-16T05:28:07;91631.66;;;1.09;100.00
18137;BME280;9194;42.632;23.298;2024-01-16T05:33:08;91651.91;;;0.97;100.00
18137;BME280;9194;42.632;23.298;2024-01-16T05:38:10;91660.34;;;0.91;100.00
18137;BME280;9194;42.632;23.298;2024-01-16T05:43:13;91681.66;;;0.70;100.00
18137;BME280;9194;42.632;23.298;2024-01-16T05:48:15;91711.13;;;0.60;100.00
18137;BME280;9194;42.632;23.298;2024-01-16T05:53:17;91711.72;;;0.62;100.00
18137;BME280;9194;42.632;23.298;2024-01-16T05:58:18;91715.88;;;0.63;100.00
18137;BME280;9194;42.632;23.298;2024-01-16T06:03:19;91732.44;;;0.67;100.00
18137;BME280;9194;42.632;23.298;2024-01-16T06:08:20;91749.09;;;0.77;100.00
18137;BME280;9194;42.632;23.298;2024-01-16T06:13:22;91755.63;;;0.80;100.00
18137;BME280;9194;42.632;23.298;2024-01-16T06:18:23;91759.34;;;0.77;100.00
18137;BME280;9194;42.632;23.298;2024-01-16T06:23:25;91777.88;;;0.79;100.00
18137;BME280;9194;42.632;23.298;2024-01-16T06:28:26;91778.28;;;0.83;100.00
18137;BME280;9194;42.632;23.298;2024-01-16T06:33:27;91789.78;;;0.87;100.00
18137;BME280;9194;42.632;23.298;2024-01-16T06:38:28;91802.31;;;0.82;100.00
18137;BME280;9194;42.632;23.298;2024-01-16T06:43:29;91802.31;;;0.82;100.00
18137;BME280;9194;42.632;23.298;2024-01-16T06:48:31;91836.78;;;0.79;100.00
18137;BME280;9194;42.632;23.298;2024-01-16T06:53:32;91837.03;;;0.85;100.00
18137;BME280;9194;42.632;23.298;2024-01-16T06:58:33;91853.06;;;0.72;100.00
18137;BME280;9194;42.632;23.298;2024-01-16T07:03:36;91873.19;;;0.75;100.00
18137;BME280;9194;42.632;23.298;2024-01-16T07:08:37;91870.81;;;0.73;100.00
18137;BME280;9194;42.632;23.298;2024-01-16T07:13:39;91873.72;;;0.70;100.00
18137;BME280;9194;42.632;23.298;2024-01-16T07:18:40;91893.28;;;0.93;100.00
18137;BME280;9194;42.632;23.298;2024-01-16T07:23:42;91927.84;;;0.82;100.00
18137;BME280;9194;42.632;23.298;2024-01-16T07:28:43;91928.84;;;0.66;100.00
18137;BME280;9194;42.632;23.298;2024-01-16T07:33:44;91939.97;;;0.73;100.00
18137;BME280;9194;42.632;23.298;2024-01-16T07:38:46;91965.13;;;0.85;100.00
18137;BME280;9194;42.632;23.298;2024-01-16T07:43:47;91962.41;;;1.07;100.00
18137;BME280;9194;42.632;23.298;2024-01-16T07:48:48;91965.47;;;1.17;100.00
18137;BME280;9194;42.632;23.298;2024-01-16T07:54:06;91972.75;;;1.14;100.00
18137;BME280;9194;42.632;23.298;2024-01-16T07:59:08;91996.31;;;1.24;100.00
18137;BME280;9194;42.632;23.298;2024-01-16T08:04:09;92000.97;;;1.35;100.00
18137;BME280;9194;42.632;23.298;2024-01-16T08:09:10;91998.97;;;1.52;100.00
18137;BME280;9194;42.632;23.298;2024-01-16T08:14:13;92008.19;;;1.68;100.00
18137;BME280;9194;42.632;23.298;2024-01-16T08:19:14;92012.50;;;1.46;100.00
18137;BME280;9194;42.632;23.298;2024-01-16T08:24:16;92037.78;;;1.28;100.00
18137;BME280;9194;42.632;23.298;2024-01-16T08:29:17;92051.31;;;1.21;100.00
18137;BME280;9194;42.632;23.298;2024-01-16T08:34:18;92061.97;;;1.25;100.00
18137;BME280;9194;42.632;23.298;2024-01-16T08:39:19;92073.66;;;1.13;100.00
18137;BME280;9194;42.632;23.298;2024-01-16T08:44:20;92083.56;;;1.16;100.00
18137;BME280;9194;42.632;23.298;2024-01-16T08:49:22;92088.06;;;1.14;100.00
18137;BME280;9194;42.632;23.298;2024-01-16T08:54:23;92092.81;;;1.17;100.00
18137;BME280;9194;42.632;23.298;2024-01-16T08:59:25;92104.00;;;1.09;100.00
18137;BME280;9194;42.632;23.298;2024-01-16T09:04:26;92104.06;;;1.31;100.00
18137;BME280;9194;42.632;23.298;2024-01-16T09:09:27;92095.81;;;1.35;100.00
18137;BME280;9194;42.632;23.298;2024-01-16T09:14:29;92110.81;;;1.68;100.00
18137;BME280;9194;42.632;23.298;2024-01-16T09:19:30;92110.59;;;1.84;100.00
18137;BME280;9194;42.632;23.298;2024-01-16T09:24:31;92101.75;;;1.86;100.00
18137;BME280;9194;42.632;23.298;2024-01-16T09:29:32;92119.03;;;1.99;100.00
18137;BME280;9194;42.632;23.298;2024-01-16T09:34:34;92126.19;;;1.68;100.00
18137;BME280;9194;42.632;23.298;2024-01-16T09:39:35;92116.28;;;1.79;100.00
18137;BME280;9194;42.632;23.298;2024-01-16T09:44:38;92118.00;;;2.36;100.00
18137;BME280;9194;42.632;23.298;2024-01-16T09:49:40;92122.69;;;2.54;100.00
18137;BME280;9194;42.632;23.298;2024-01-16T09:54:43;92131.44;;;2.59;98.41
18137;BME280;9194;42.632;23.298;2024-01-16T09:59:44;92123.88;;;2.30;98.93
18137;BME280;9194;42.632;23.298;2024-01-16T10:04:46;92122.09;;;2.09;100.00
18137;BME280;9194;42.632;23.298;2024-01-16T10:09:47;92125.22;;;2.47;100.00
18137;BME280;9194;42.632;23.298;2024-01-16T10:14:49;92116.19;;;2.79;99.08
18137;BME280;9194;42.632;23.298;2024-01-16T10:19:53;92127.56;;;2.98;96.20
18137;BME280;9194;42.632;23.298;2024-01-16T10:25:06;92131.78;;;3.05;94.55
18137;BME280;9194;42.632;23.298;2024-01-16T10:30:08;92126.63;;;3.05;93.53
18137;BME280;9194;42.632;23.298;2024-01-16T10:35:12;92126.63;;;3.40;100.00
18137;BME280;9194;42.632;23.298;2024-01-16T10:40:21;92122.69;;;3.37;88.21
18137;BME280;9194;42.632;23.298;2024-01-16T10:45:23;92136.28;;;2.97;95.95
18137;BME280;9194;42.632;23.298;2024-01-16T10:50:24;92139.53;;;3.12;90.98
18137;BME280;9194;42.632;23.298;2024-01-16T10:55:27;92121.00;;;3.23;87.76
18137;BME280;9194;42.632;23.298;2024-01-16T11:00:29;92126.06;;;3.10;90.04
18137;BME280;9194;42.632;23.298;2024-01-16T11:05:32;92133.03;;;3.57;89.40
18137;BME280;9194;42.632;23.298;2024-01-16T11:10:35;92131.91;;;3.66;84.35
18137;BME280;9194;42.632;23.298;2024-01-16T11:15:38;92144.00;;;3.31;84.71
18137;BME280;9194;42.632;23.298;2024-01-16T11:20:39;92146.50;;;3.52;84.91
18137;BME280;9194;42.632;23.298;2024-01-16T11:25:43;92147.38;;;3.32;85.08
18137;BME280;9194;42.632;23.298;2024-01-16T11:30:45;92140.94;;;3.55;83.62
18137;BME280;9194;42.632;23.298;2024-01-16T11:35:47;92146.75;;;3.29;86.09
18137;BME280;9194;42.632;23.298;2024-01-16T11:40:48;92164.63;;;3.44;85.75
18137;BME280;9194;42.632;23.298;2024-01-16T11:45:50;92149.50;;;3.28;87.56
18137;BME280;9194;42.632;23.298;2024-01-16T11:50:53;92160.19;;;3.59;91.11
18137;BME280;9194;42.632;23.298;2024-01-16T12:01:01;92169.03;;;3.16;94.67
18137;BME280;9194;42.632;23.298;2024-01-16T12:06:04;92172.06;;;3.26;97.02
18137;BME280;9194;42.632;23.298;2024-01-16T12:11:07;92188.00;;;3.15;98.07
18137;BME280;9194;42.632;23.298;2024-01-16T12:16:08;92196.09;;;3.12;98.05
18137;BME280;9194;42.632;23.298;2024-01-16T12:21:10;92190.16;;;2.83;100.00
18137;BME280;9194;42.632;23.298;2024-01-16T12:26:20;92195.66;;;2.59;100.00
18137;BME280;9194;42.632;23.298;2024-01-16T12:31:21;92203.75;;;2.56;100.00
18137;BME280;9194;42.632;23.298;2024-01-16T12:36:23;92205.50;;;2.34;100.00
18137;BME280;9194;42.632;23.298;2024-01-16T12:41:26;92210.13;;;2.24;100.00
18137;BME280;9194;42.632;23.298;2024-01-16T12:46:28;92218.09;;;2.29;100.00
18137;BME280;9194;42.632;23.298;2024-01-16T12:51:30;92220.03;;;2.27;100.00
18137;BME280;9194;42.632;23.298;2024-01-16T12:56:31;92205.31;;;2.36;100.00
18137;BME280;9194;42.632;23.298;2024-01-16T13:01:33;92213.50;;;2.46;100.00
18137;BME280;9194;42.632;23.298;2024-01-16T13:06:34;92223.53;;;2.41;99.39
18137;BME280;9194;42.632;23.298;2024-01-16T13:11:49;92235.00;;;2.24;100.00
18137;BME280;9194;42.632;23.298;2024-01-16T13:16:52;92243.47;;;2.03;100.00
18137;BME280;9194;42.632;23.298;2024-01-16T13:21:55;92240.00;;;2.11;100.00
18137;BME280;9194;42.632;23.298;2024-01-16T13:26:56;92249.84;;;1.92;100.00
18137;BME280;9194;42.632;23.298;2024-01-16T13:31:57;92247.13;;;1.79;100.00
18137;BME280;9194;42.632;23.298;2024-01-16T13:37:01;92245.88;;;1.75;100.00
18137;BME280;9194;42.632;23.298;2024-01-16T13:42:03;92248.97;;;1.71;100.00
18137;BME280;9194;42.632;23.298;2024-01-16T13:47:07;92262.53;;;1.79;100.00
18137;BME280;9194;42.632;23.298;2024-01-16T13:52:09;92256.50;;;1.72;100.00
18137;BME280;9194;42.632;23.298;2024-01-16T13:57:10;92260.53;;;1.52;100.00
18137;BME280;9194;42.632;23.298;2024-01-16T14:02:11;92269.22;;;0.99;100.00
18137;BME280;9194;42.632;23.298;2024-01-16T14:07:13;92278.69;;;0.98;100.00
18137;BME280;9194;42.632;23.298;2024-01-16T14:12:14;92278.31;;;1.01;100.00
18137;BME280;9194;42.632;23.298;2024-01-16T14:17:15;92274.19;;;0.77;100.00
18137;BME280;9194;42.632;23.298;2024-01-16T14:22:16;92294.91;;;0.68;100.00
18137;BME280;9194;42.632;23.298;2024-01-16T14:27:17;92303.91;;;0.64;100.00
18137;BME280;9194;42.632;23.298;2024-01-16T14:32:20;92307.03;;;0.74;100.00
18137;BME280;9194;42.632;23.298;2024-01-16T14:37:21;92309.19;;;0.85;100.00
18137;BME280;9194;42.632;23.298;2024-01-16T14:42:22;92306.19;;;0.81;100.00
18137;BME280;9194;42.632;23.298;2024-01-16T14:47:23;92303.09;;;0.86;100.00
18137;BME280;9194;42.632;23.298;2024-01-16T14:52:25;92312.28;;;0.80;100.00
18137;BME280;9194;42.632;23.298;2024-01-16T14:57:26;92312.16;;;0.74;100.00
18137;BME280;9194;42.632;23.298;2024-01-16T15:02:28;92316.72;;;0.64;100.00
18137;BME280;9194;42.632;23.298;2024-01-16T15:07:30;92331.94;;;0.57;100.00
18137;BME280;9194;42.632;23.298;2024-01-16T15:12:31;92348.13;;;0.50;100.00
18137;BME280;9194;42.632;23.298;2024-01-16T15:17:33;92342.09;;;0.43;100.00
18137;BME280;9194;42.632;23.298;2024-01-16T15:22:45;92355.38;;;0.46;100.00
18137;BME280;9194;42.632;23.298;2024-01-16T15:27:47;92351.72;;;0.40;100.00
18137;BME280;9194;42.632;23.298;2024-01-16T15:32:49;92365.94;;;0.43;100.00
18137;BME280;9194;42.632;23.298;2024-01-16T15:37:50;92366.16;;;0.33;100.00
18137;BME280;9194;42.632;23.298;2024-01-16T15:42:51;92375.31;;;0.20;100.00
18137;BME280;9194;42.632;23.298;2024-01-16T15:47:52;92375.16;;;0.13;100.00
18137;BME280;9194;42.632;23.298;2024-01-16T15:52:54;92383.84;;;0.04;100.00
18137;BME280;9194;42.632;23.298;2024-01-16T15:57:55;92383.53;;;-0.01;100.00
18137;BME280;9194;42.632;23.298;2024-01-16T16:02:56;92386.28;;;-0.19;100.00
18137;BME280;9194;42.632;23.298;2024-01-16T16:08:00;92399.06;;;-0.35;100.00
18137;BME280;9194;42.632;23.298;2024-01-16T16:13:01;92386.34;;;-0.59;100.00
18137;BME280;9194;42.632;23.298;2024-01-16T16:18:04;92391.44;;;-0.75;100.00
18137;BME280;9194;42.632;23.298;2024-01-16T16:23:05;92392.88;;;-0.89;100.00
18137;BME280;9194;42.632;23.298;2024-01-16T16:28:08;92400.19;;;-1.02;100.00
18137;BME280;9194;42.632;23.298;2024-01-16T16:33:09;92397.00;;;-1.12;100.00
18137;BME280;9194;42.632;23.298;2024-01-16T16:38:11;92406.72;;;-1.24;100.00
18137;BME280;9194;42.632;23.298;2024-01-16T16:43:13;92411.63;;;-1.31;100.00
18137;BME280;9194;42.632;23.298;2024-01-16T16:48:15;92405.22;;;-1.43;100.00
18137;BME280;9194;42.632;23.298;2024-01-16T16:53:18;92398.19;;;-1.49;100.00
18137;BME280;9194;42.632;23.298;2024-01-16T16:58:19;92413.16;;;-1.54;100.00
18137;BME280;9194;42.632;23.298;2024-01-16T17:03:21;92418.22;;;-1.62;100.00
18137;BME280;9194;42.632;23.298;2024-01-16T17:08:22;92421.09;;;-1.65;100.00
18137;BME280;9194;42.632;23.298;2024-01-16T17:13:23;92407.50;;;-1.74;100.00
18137;BME280;9194;42.632;23.298;2024-01-16T17:18:29;92413.72;;;-1.76;100.00
18137;BME280;9194;42.632;23.298;2024-01-16T17:23:31;92412.25;;;-1.87;100.00
18137;BME280;9194;42.632;23.298;2024-01-16T17:28:33;92418.56;;;-1.91;100.00
18137;BME280;9194;42.632;23.298;2024-01-16T17:33:34;92422.88;;;-1.91;100.00
18137;BME280;9194;42.632;23.298;2024-01-16T17:38:35;92424.63;;;-1.92;100.00
18137;BME280;9194;42.632;23.298;2024-01-16T17:43:36;92430.84;;;-1.94;100.00
18137;BME280;9194;42.632;23.298;2024-01-16T17:48:38;92437.56;;;-1.93;100.00
18137;BME280;9194;42.632;23.298;2024-01-16T17:53:41;92430.53;;;-1.91;100.00
18137;BME280;9194;42.632;23.298;2024-01-16T17:58:44;92429.56;;;-1.98;100.00
18137;BME280;9194;42.632;23.298;2024-01-16T18:03:45;92430.97;;;-2.04;100.00
18137;BME280;9194;42.632;23.298;2024-01-16T18:08:47;92442.91;;;-2.04;100.00
18137;BME280;9194;42.632;23.298;2024-01-16T18:13:50;92439.22;;;-2.10;100.00
18137;BME280;9194;42.632;23.298;2024-01-16T18:18:51;92437.91;;;-2.14;100.00
18137;BME280;9194;42.632;23.298;2024-01-16T18:23:53;92435.00;;;-2.19;100.00
18137;BME280;9194;42.632;23.298;2024-01-16T18:28:54;92441.81;;;-2.28;100.00
18137;BME280;9194;42.632;23.298;2024-01-16T18:33:55;92434.97;;;-2.27;100.00
18137;BME280;9194;42.632;23.298;2024-01-16T18:38:56;92427.16;;;-2.26;100.00
18137;BME280;9194;42.632;23.298;2024-01-16T18:43:57;92431.09;;;-2.31;100.00
18137;BME280;9194;42.632;23.298;2024-01-16T18:48:58;92438.94;;;-2.25;100.00
18137;BME280;9194;42.632;23.298;2024-01-16T18:54:00;92456.78;;;-2.25;100.00
18137;BME280;9194;42.632;23.298;2024-01-16T18:59:02;92466.63;;;-2.30;100.00
18137;BME280;9194;42.632;23.298;2024-01-16T19:04:05;92472.53;;;-2.29;100.00
18137;BME280;9194;42.632;23.298;2024-01-16T19:09:07;92477.19;;;-2.25;100.00
18137;BME280;9194;42.632;23.298;2024-01-16T19:14:10;92461.06;;;-2.33;100.00
18137;BME280;9194;42.632;23.298;2024-01-16T19:19:15;92453.19;;;-2.40;100.00
18137;BME280;9194;42.632;23.298;2024-01-16T19:24:17;92456.72;;;-2.33;100.00
18137;BME280;9194;42.632;23.298;2024-01-16T19:29:22;92454.63;;;-2.37;100.00
18137;BME280;9194;42.632;23.298;2024-01-16T19:34:25;92461.44;;;-2.46;100.00
18137;BME280;9194;42.632;23.298;2024-01-16T19:39:26;92465.72;;;-2.46;100.00
18137;BME280;9194;42.632;23.298;2024-01-16T19:44:33;92457.72;;;-2.52;100.00
18137;BME280;9194;42.632;23.298;2024-01-16T19:49:37;92461.56;;;-2.47;100.00
18137;BME280;9194;42.632;23.298;2024-01-16T19:54:38;92463.03;;;-2.45;100.00
18137;BME280;9194;42.632;23.298;2024-01-16T19:59:40;92463.53;;;-2.59;100.00
18137;BME280;9194;42.632;23.298;2024-01-16T20:04:41;92465.75;;;-2.64;100.00
18137;BME280;9194;42.632;23.298;2024-01-16T20:09:42;92475.00;;;-2.63;100.00
18137;BME280;9194;42.632;23.298;2024-01-16T20:14:45;92470.13;;;-2.74;100.00
18137;BME280;9194;42.632;23.298;2024-01-16T20:19:46;92488.53;;;-2.80;100.00
18137;BME280;9194;42.632;23.298;2024-01-16T20:24:48;92495.38;;;-2.81;100.00
18137;BME280;9194;42.632;23.298;2024-01-16T20:29:49;92496.16;;;-2.80;100.00
18137;BME280;9194;42.632;23.298;2024-01-16T20:34:50;92492.59;;;-2.87;100.00
18137;BME280;9194;42.632;23.298;2024-01-16T20:39:51;92497.31;;;-2.93;100.00
18137;BME280;9194;42.632;23.298;2024-01-16T20:44:52;92503.63;;;-2.97;100.00
18137;BME280;9194;42.632;23.298;2024-01-16T20:49:54;92518.63;;;-2.94;100.00
18137;BME280;9194;42.632;23.298;2024-01-16T20:54:56;92520.81;;;-2.99;100.00
18137;BME280;9194;42.632;23.298;2024-01-16T20:59:57;92529.25;;;-2.98;100.00
18137;BME280;9194;42.632;23.298;2024-01-16T21:04:58;92527.78;;;-3.01;100.00
18137;BME280;9194;42.632;23.298;2024-01-16T21:09:59;92541.44;;;-3.02;100.00
18137;BME280;9194;42.632;23.298;2024-01-16T21:15:01;92553.91;;;-2.99;100.00
18137;BME280;9194;42.632;23.298;2024-01-16T21:20:07;92559.63;;;-2.97;100.00
18137;BME280;9194;42.632;23.298;2024-01-16T21:25:09;92563.00;;;-2.96;100.00
18137;BME280;9194;42.632;23.298;2024-01-16T21:30:12;92567.94;;;-2.95;100.00
18137;BME280;9194;42.632;23.298;2024-01-16T21:35:13;92564.03;;;-2.89;100.00
18137;BME280;9194;42.632;23.298;2024-01-16T21:40:16;92567.69;;;-2.92;100.00
18137;BME280;9194;42.632;23.298;2024-01-16T21:45:17;92568.25;;;-2.98;100.00
18137;BME280;9194;42.632;23.298;2024-01-16T21:50:18;92574.28;;;-2.99;100.00
18137;BME280;9194;42.632;23.298;2024-01-16T21:55:19;92556.22;;;-3.05;100.00
18137;BME280;9194;42.632;23.298;2024-01-16T22:00:22;92545.53;;;-3.09;100.00
18137;BME280;9194;42.632;23.298;2024-01-16T22:05:25;92554.75;;;-3.08;100.00
18137;BME280;9194;42.632;23.298;2024-01-16T22:10:26;92559.47;;;-3.13;100.00
18137;BME280;9194;42.632;23.298;2024-01-16T22:15:28;92545.53;;;-3.09;100.00
18137;BME280;9194;42.632;23.298;2024-01-16T22:20:29;92522.88;;;-3.12;100.00
18137;BME280;9194;42.632;23.298;2024-01-16T22:25:32;92509.78;;;-3.17;100.00
18137;BME280;9194;42.632;23.298;2024-01-16T22:30:34;92513.13;;;-3.16;100.00
18137;BME280;9194;42.632;23.298;2024-01-16T22:35:35;92526.38;;;-3.13;100.00
18137;BME280;9194;42.632;23.298;2024-01-16T22:40:36;92512.28;;;-3.07;100.00
18137;BME280;9194;42.632;23.298;2024-01-16T22:45:37;92508.28;;;-3.10;100.00
18137;BME280;9194;42.632;23.298;2024-01-16T22:50:40;92503.69;;;-3.06;100.00
18137;BME280;9194;42.632;23.298;2024-01-16T22:55:43;92494.81;;;-3.02;100.00
18137;BME280;9194;42.632;23.298;2024-01-16T23:00:45;92491.06;;;-2.98;100.00
18137;BME280;9194;42.632;23.298;2024-01-16T23:05:52;92491.63;;;-3.04;100.00
18137;BME280;9194;42.632;23.298;2024-01-16T23:10:53;92490.69;;;-3.03;100.00
18137;BME280;9194;42.632;23.298;2024-01-16T23:15:55;92492.72;;;-3.07;100.00
18137;BME280;9194;42.632;23.298;2024-01-16T23:20:56;92480.69;;;-3.14;100.00
18137;BME280;9194;42.632;23.298;2024-01-16T23:25:58;92488.75;;;-3.19;100.00
18137;BME280;9194;42.632;23.298;2024-01-16T23:30:59;92484.91;;;-3.23;100.00
18137;BME280;9194;42.632;23.298;2024-01-16T23:36:01;92485.34;;;-3.27;100.00
18137;BME280;9194;42.632;23.298;2024-01-16T23:41:02;92497.41;;;-3.29;100.00
18137;BME280;9194;42.632;23.298;2024-01-16T23:46:05;92498.19;;;-3.29;100.00
18137;BME280;9194;42.632;23.298;2024-01-16T23:51:07;92487.66;;;-3.34;100.00
18137;BME280;9194;42.632;23.298;2024-01-16T23:56:08;92476.81;;;-3.36;100.00
